KISN/ISN METAR and TAF weather

Enter ICAO airport designator
Station Type Date Time Source
KISN METAR 2019/08/24 17:52 UTC NOAA

KISN 241752Z AUTO 21008KT 170V250 10SM CLR 26/18 A2979 RMK AO2 SLP075 60000 T02610183 10261 20206 58005 $


Station Type Date Time Source
KISN Decoded METAR 2019/08/24 17:52 UTC NOAA

Station name not available
Aug 24, 2019 - 01:52 PM EDT / 2019.08.24 1752 UTC
Wind: from the SSW (210 degrees) at 9 MPH (8 KT) (direction variable):0
Visibility: 10 mile(s):0
Sky conditions: clear
Temperature: 79.0 F (26.1 C)
Dew Point: 64.9 F (18.3 C)
Relative Humidity: 62%
Pressure (altimeter): 29.79 in. Hg (1008 hPa)
Pressure tendency: 0.01 inches (0.5 hPa) lower than three hours ago
ob: KISN 241752Z AUTO 21008KT 170V250 10SM CLR 26/18 A2979 RMK AO2 SLP075 60000 T02610183 10261 20206 58005
cycle: 18

Station Type Date Time Source
KISN TAF 2019/08/24 18:30 UTC NOAA

TAF KISN 241728Z 2418/2518 20007KT P6SM FEW050 SCT120
FM242100 21007KT P6SM FEW060 SCT200
FM251600 26006KT P6SM BKN200

Example: see airport list